首页
METAR-TAF:

METAR-TAF

机场 :

克洛维, 新墨西哥州, 美国

纬度: 34-26N, 经度: 103-05W, 海拔: 1284米

当前天气观测

该预报发布于40分钟前的16:56 UTC
风速14节,风向南转西南,有时为20节阵风
温度 31°C
湿度 31%
气压 1019 hPa
能見度: 16.1公里
天空无云

METAR: KCVN 241656Z AUTO 21014G20KT 10SM CLR 31/12 A3010 RMK AO2 SLP142 T03110117

时间: 11:36 (17:36 UTC)


TAF: 丢失

超过4000个机场的气象观测和天气预报(METAR&TAF报告)。

可查询的气象台以黄色和红色小点在地图上表示。

将鼠标移到小点上方,可查看气象台名称。

然后点击查看天气观测和预报。

如需切换地图:点击带黑十字的绿色按钮放大地图;点击带横线的绿色按钮缩小地图;或者点击绿色箭头查看邻近地区的地图。


METAR-TAF: